sensor_id;sensor_type;location;lat;lon;timestamp;temperature;humidity
18694;DHT22;9477;51.414;10.362;2022-08-19T00:01:12;23.70;76.00
18694;DHT22;9477;51.414;10.362;2022-08-19T00:03:15;23.70;76.50
18694;DHT22;9477;51.414;10.362;2022-08-19T00:05:19;23.70;76.60
18694;DHT22;9477;51.414;10.362;2022-08-19T00:07:23;23.80;76.60
18694;DHT22;9477;51.414;10.362;2022-08-19T00:09:27;23.70;76.30
18694;DHT22;9477;51.414;10.362;2022-08-19T00:11:30;23.80;76.50
18694;DHT22;9477;51.414;10.362;2022-08-19T00:13:34;23.80;76.30
18694;DHT22;9477;51.414;10.362;2022-08-19T00:15:37;23.80;76.40
18694;DHT22;9477;51.414;10.362;2022-08-19T00:17:41;23.70;76.50
18694;DHT22;9477;51.414;10.362;2022-08-19T00:19:47;23.60;76.80
18694;DHT22;9477;51.414;10.362;2022-08-19T00:21:51;23.70;77.10
18694;DHT22;9477;51.414;10.362;2022-08-19T00:23:54;23.60;77.10
18694;DHT22;9477;51.414;10.362;2022-08-19T00:25:59;23.70;77.20
18694;DHT22;9477;51.414;10.362;2022-08-19T00:28:03;23.60;77.20
18694;DHT22;9477;51.414;10.362;2022-08-19T00:30:08;23.50;77.10
18694;DHT22;9477;51.414;10.362;2022-08-19T00:32:12;23.30;77.40
18694;DHT22;9477;51.414;10.362;2022-08-19T00:34:18;23.30;77.90
18694;DHT22;9477;51.414;10.362;2022-08-19T00:36:21;23.20;78.00
18694;DHT22;9477;51.414;10.362;2022-08-19T00:38:24;23.30;78.10
18694;DHT22;9477;51.414;10.362;2022-08-19T00:40:38;23.40;78.20
18694;DHT22;9477;51.414;10.362;2022-08-19T00:42:41;23.50;78.50
18694;DHT22;9477;51.414;10.362;2022-08-19T00:44:45;23.60;77.80
18694;DHT22;9477;51.414;10.362;2022-08-19T00:46:50;23.60;77.60
18694;DHT22;9477;51.414;10.362;2022-08-19T00:48:59;23.60;77.70
18694;DHT22;9477;51.414;10.362;2022-08-19T00:51:04;23.60;77.70
18694;DHT22;9477;51.414;10.362;2022-08-19T00:53:07;23.60;78.00
18694;DHT22;9477;51.414;10.362;2022-08-19T00:55:14;23.70;77.80
18694;DHT22;9477;51.414;10.362;2022-08-19T00:57:24;23.90;77.70
18694;DHT22;9477;51.414;10.362;2022-08-19T00:59:29;23.70;77.90
18694;DHT22;9477;51.414;10.362;2022-08-19T01:01:53;23.50;78.20
18694;DHT22;9477;51.414;10.362;2022-08-19T01:03:56;23.60;78.70
18694;DHT22;9477;51.414;10.362;2022-08-19T01:05:59;23.60;78.60
18694;DHT22;9477;51.414;10.362;2022-08-19T01:08:04;23.60;78.70
18694;DHT22;9477;51.414;10.362;2022-08-19T01:10:10;23.60;78.90
18694;DHT22;9477;51.414;10.362;2022-08-19T01:12:15;23.60;79.10
18694;DHT22;9477;51.414;10.362;2022-08-19T01:14:19;23.50;78.90
18694;DHT22;9477;51.414;10.362;2022-08-19T01:16:24;23.40;79.40
18694;DHT22;9477;51.414;10.362;2022-08-19T01:18:30;23.50;79.50
18694;DHT22;9477;51.414;10.362;2022-08-19T01:20:33;23.50;79.40
18694;DHT22;9477;51.414;10.362;2022-08-19T01:22:40;23.50;79.30
18694;DHT22;9477;51.414;10.362;2022-08-19T01:24:45;23.50;79.40
18694;DHT22;9477;51.414;10.362;2022-08-19T01:26:51;23.50;79.50
18694;DHT22;9477;51.414;10.362;2022-08-19T01:28:57;23.60;79.30
18694;DHT22;9477;51.414;10.362;2022-08-19T01:31:02;23.50;79.40
18694;DHT22;9477;51.414;10.362;2022-08-19T01:33:08;23.50;79.60
18694;DHT22;9477;51.414;10.362;2022-08-19T01:35:12;23.50;79.60
18694;DHT22;9477;51.414;10.362;2022-08-19T01:37:15;23.60;79.70
18694;DHT22;9477;51.414;10.362;2022-08-19T01:39:29;23.60;79.40
18694;DHT22;9477;51.414;10.362;2022-08-19T01:41:32;23.50;79.30
18694;DHT22;9477;51.414;10.362;2022-08-19T01:43:35;23.40;79.80
18694;DHT22;9477;51.414;10.362;2022-08-19T01:45:58;23.60;79.90
18694;DHT22;9477;51.414;10.362;2022-08-19T01:48:03;23.60;79.70
18694;DHT22;9477;51.414;10.362;2022-08-19T01:50:08;23.70;80.30
18694;DHT22;9477;51.414;10.362;2022-08-19T01:52:11;23.70;79.40
18694;DHT22;9477;51.414;10.362;2022-08-19T01:54:15;23.80;79.20
18694;DHT22;9477;51.414;10.362;2022-08-19T01:56:29;23.80;79.00
18694;DHT22;9477;51.414;10.362;2022-08-19T01:58:36;23.40;79.00
18694;DHT22;9477;51.414;10.362;2022-08-19T02:00:41;23.20;79.80
18694;DHT22;9477;51.414;10.362;2022-08-19T02:02:47;23.20;80.20
18694;DHT22;9477;51.414;10.362;2022-08-19T02:04:50;23.00;80.50
18694;DHT22;9477;51.414;10.362;2022-08-19T02:06:53;22.50;81.10
18694;DHT22;9477;51.414;10.362;2022-08-19T02:08:55;22.70;81.70
18694;DHT22;9477;51.414;10.362;2022-08-19T02:10:59;22.80;81.70
18694;DHT22;9477;51.414;10.362;2022-08-19T02:13:03;22.80;81.60
18694;DHT22;9477;51.414;10.362;2022-08-19T02:15:07;22.80;81.50
18694;DHT22;9477;51.414;10.362;2022-08-19T02:17:09;22.60;81.70
18694;DHT22;9477;51.414;10.362;2022-08-19T02:19:13;22.60;81.60
18694;DHT22;9477;51.414;10.362;2022-08-19T02:21:17;22.70;81.80
18694;DHT22;9477;51.414;10.362;2022-08-19T02:23:23;22.70;81.80
18694;DHT22;9477;51.414;10.362;2022-08-19T02:25:25;22.90;81.80
18694;DHT22;9477;51.414;10.362;2022-08-19T02:27:28;23.00;81.20
18694;DHT22;9477;51.414;10.362;2022-08-19T02:29:33;23.10;80.90
18694;DHT22;9477;51.414;10.362;2022-08-19T02:31:36;23.10;80.70
18694;DHT22;9477;51.414;10.362;2022-08-19T02:33:39;23.10;80.50
18694;DHT22;9477;51.414;10.362;2022-08-19T02:35:42;23.10;80.20
18694;DHT22;9477;51.414;10.362;2022-08-19T02:37:45;23.00;80.30
18694;DHT22;9477;51.414;10.362;2022-08-19T02:40:07;23.00;80.40
18694;DHT22;9477;51.414;10.362;2022-08-19T02:42:13;23.10;80.50
18694;DHT22;9477;51.414;10.362;2022-08-19T02:44:16;23.10;80.50
18694;DHT22;9477;51.414;10.362;2022-08-19T02:46:33;23.10;80.30
18694;DHT22;9477;51.414;10.362;2022-08-19T02:48:38;23.10;80.10
18694;DHT22;9477;51.414;10.362;2022-08-19T02:50:40;23.20;79.80
18694;DHT22;9477;51.414;10.362;2022-08-19T02:52:54;23.20;79.60
18694;DHT22;9477;51.414;10.362;2022-08-19T02:54:57;22.90;79.80
18694;DHT22;9477;51.414;10.362;2022-08-19T02:57:00;22.80;80.00
18694;DHT22;9477;51.414;10.362;2022-08-19T02:59:03;22.70;80.30
18694;DHT22;9477;51.414;10.362;2022-08-19T03:01:20;22.70;80.50
18694;DHT22;9477;51.414;10.362;2022-08-19T03:03:25;22.70;80.40
18694;DHT22;9477;51.414;10.362;2022-08-19T03:05:28;22.70;80.30
18694;DHT22;9477;51.414;10.362;2022-08-19T03:07:51;22.80;80.50
18694;DHT22;9477;51.414;10.362;2022-08-19T03:09:54;22.70;80.00
18694;DHT22;9477;51.414;10.362;2022-08-19T03:11:57;22.70;80.30
18694;DHT22;9477;51.414;10.362;2022-08-19T03:14:01;22.80;80.00
18694;DHT22;9477;51.414;10.362;2022-08-19T03:16:05;22.90;80.10
18694;DHT22;9477;51.414;10.362;2022-08-19T03:18:08;23.00;79.80
18694;DHT22;9477;51.414;10.362;2022-08-19T03:20:14;23.00;79.40
18694;DHT22;9477;51.414;10.362;2022-08-19T03:22:17;23.00;79.20
18694;DHT22;9477;51.414;10.362;2022-08-19T03:24:21;23.00;79.10
18694;DHT22;9477;51.414;10.362;2022-08-19T03:26:24;22.90;79.20
18694;DHT22;9477;51.414;10.362;2022-08-19T03:28:27;23.10;79.30
18694;DHT22;9477;51.414;10.362;2022-08-19T03:30:30;23.00;78.70
18694;DHT22;9477;51.414;10.362;2022-08-19T03:32:34;22.90;79.10
18694;DHT22;9477;51.414;10.362;2022-08-19T03:34:45;22.90;79.20
18694;DHT22;9477;51.414;10.362;2022-08-19T03:36:49;23.00;79.20
18694;DHT22;9477;51.414;10.362;2022-08-19T03:38:55;23.00;78.80
18694;DHT22;9477;51.414;10.362;2022-08-19T03:41:03;23.00;78.90
18694;DHT22;9477;51.414;10.362;2022-08-19T03:43:07;23.10;78.80
18694;DHT22;9477;51.414;10.362;2022-08-19T03:45:10;23.00;78.50
18694;DHT22;9477;51.414;10.362;2022-08-19T03:47:13;23.10;78.70
18694;DHT22;9477;51.414;10.362;2022-08-19T03:49:19;23.00;78.40
18694;DHT22;9477;51.414;10.362;2022-08-19T03:51:30;23.00;78.40
18694;DHT22;9477;51.414;10.362;2022-08-19T03:53:35;22.70;78.40
18694;DHT22;9477;51.414;10.362;2022-08-19T03:55:39;22.70;78.60
18694;DHT22;9477;51.414;10.362;2022-08-19T03:57:43;22.80;79.00
18694;DHT22;9477;51.414;10.362;2022-08-19T03:59:46;22.60;78.70
18694;DHT22;9477;51.414;10.362;2022-08-19T04:01:49;22.60;78.80
18694;DHT22;9477;51.414;10.362;2022-08-19T04:03:52;22.50;78.70
18694;DHT22;9477;51.414;10.362;2022-08-19T04:05:56;22.40;79.10
18694;DHT22;9477;51.414;10.362;2022-08-19T04:08:01;22.40;79.20
18694;DHT22;9477;51.414;10.362;2022-08-19T04:10:06;22.30;79.40
18694;DHT22;9477;51.414;10.362;2022-08-19T04:12:11;22.30;79.70
18694;DHT22;9477;51.414;10.362;2022-08-19T04:14:16;22.20;79.50
18694;DHT22;9477;51.414;10.362;2022-08-19T04:16:21;22.00;79.80
18694;DHT22;9477;51.414;10.362;2022-08-19T04:18:33;22.00;80.20
18694;DHT22;9477;51.414;10.362;2022-08-19T04:20:42;21.90;79.90
18694;DHT22;9477;51.414;10.362;2022-08-19T04:22:45;21.90;80.20
18694;DHT22;9477;51.414;10.362;2022-08-19T04:24:48;22.00;80.50
18694;DHT22;9477;51.414;10.362;2022-08-19T04:26:52;22.00;80.10
18694;DHT22;9477;51.414;10.362;2022-08-19T04:28:55;21.90;80.10
18694;DHT22;9477;51.414;10.362;2022-08-19T04:30:58;21.70;80.50
18694;DHT22;9477;51.414;10.362;2022-08-19T04:33:00;21.80;80.90
18694;DHT22;9477;51.414;10.362;2022-08-19T04:35:04;21.80;80.90
18694;DHT22;9477;51.414;10.362;2022-08-19T04:37:19;21.80;80.70
18694;DHT22;9477;51.414;10.362;2022-08-19T04:39:24;22.00;80.90
18694;DHT22;9477;51.414;10.362;2022-08-19T04:41:48;22.10;80.30
18694;DHT22;9477;51.414;10.362;2022-08-19T04:44:11;22.00;80.20
18694;DHT22;9477;51.414;10.362;2022-08-19T04:46:13;22.00;80.40
18694;DHT22;9477;51.414;10.362;2022-08-19T04:48:38;22.10;80.60
18694;DHT22;9477;51.414;10.362;2022-08-19T04:50:50;22.10;80.50
18694;DHT22;9477;51.414;10.362;2022-08-19T04:52:55;22.20;80.10
18694;DHT22;9477;51.414;10.362;2022-08-19T04:54:58;22.30;79.60
18694;DHT22;9477;51.414;10.362;2022-08-19T04:57:01;22.20;79.40
18694;DHT22;9477;51.414;10.362;2022-08-19T04:59:06;22.20;79.70
18694;DHT22;9477;51.414;10.362;2022-08-19T05:01:14;22.00;79.10
18694;DHT22;9477;51.414;10.362;2022-08-19T05:03:17;22.00;79.30
18694;DHT22;9477;51.414;10.362;2022-08-19T05:05:20;21.90;79.00
18694;DHT22;9477;51.414;10.362;2022-08-19T05:07:23;21.80;79.10
18694;DHT22;9477;51.414;10.362;2022-08-19T05:09:26;21.70;79.40
18694;DHT22;9477;51.414;10.362;2022-08-19T05:11:44;21.70;79.80
18694;DHT22;9477;51.414;10.362;2022-08-19T05:13:47;21.70;79.90
18694;DHT22;9477;51.414;10.362;2022-08-19T05:15:54;21.60;80.00
18694;DHT22;9477;51.414;10.362;2022-08-19T05:17:58;21.80;80.40
18694;DHT22;9477;51.414;10.362;2022-08-19T05:20:21;21.80;79.60
18694;DHT22;9477;51.414;10.362;2022-08-19T05:22:42;21.80;79.80
18694;DHT22;9477;51.414;10.362;2022-08-19T05:24:48;21.80;80.40
18694;DHT22;9477;51.414;10.362;2022-08-19T05:27:10;21.90;79.80
18694;DHT22;9477;51.414;10.362;2022-08-19T05:29:15;21.90;79.60
18694;DHT22;9477;51.414;10.362;2022-08-19T05:31:19;22.00;79.40
18694;DHT22;9477;51.414;10.362;2022-08-19T05:33:23;21.90;79.00
18694;DHT22;9477;51.414;10.362;2022-08-19T05:35:26;21.90;79.60
18694;DHT22;9477;51.414;10.362;2022-08-19T05:37:35;22.10;79.60
18694;DHT22;9477;51.414;10.362;2022-08-19T05:39:38;22.00;79.20
18694;DHT22;9477;51.414;10.362;2022-08-19T05:41:42;22.00;79.30
18694;DHT22;9477;51.414;10.362;2022-08-19T05:43:45;22.20;79.40
18694;DHT22;9477;51.414;10.362;2022-08-19T05:45:48;22.20;78.90
18694;DHT22;9477;51.414;10.362;2022-08-19T05:47:52;22.20;78.70
18694;DHT22;9477;51.414;10.362;2022-08-19T05:49:56;22.30;78.80
18694;DHT22;9477;51.414;10.362;2022-08-19T05:52:02;22.40;78.40
18694;DHT22;9477;51.414;10.362;2022-08-19T05:54:06;22.40;78.30
18694;DHT22;9477;51.414;10.362;2022-08-19T05:56:12;22.40;78.30
18694;DHT22;9477;51.414;10.362;2022-08-19T05:58:16;22.30;77.80
18694;DHT22;9477;51.414;10.362;2022-08-19T06:00:24;22.40;77.90
18694;DHT22;9477;51.414;10.362;2022-08-19T06:02:27;22.30;77.60
18694;DHT22;9477;51.414;10.362;2022-08-19T06:04:30;22.20;78.00
18694;DHT22;9477;51.414;10.362;2022-08-19T06:06:34;22.20;78.30
18694;DHT22;9477;51.414;10.362;2022-08-19T06:08:38;22.20;77.80
18694;DHT22;9477;51.414;10.362;2022-08-19T06:10:40;22.20;77.70
18694;DHT22;9477;51.414;10.362;2022-08-19T06:12:43;22.10;78.00
18694;DHT22;9477;51.414;10.362;2022-08-19T06:14:46;22.00;78.00
18694;DHT22;9477;51.414;10.362;2022-08-19T06:17:02;22.10;78.20
18694;DHT22;9477;51.414;10.362;2022-08-19T06:19:10;22.10;77.90
18694;DHT22;9477;51.414;10.362;2022-08-19T06:21:14;22.00;77.40
18694;DHT22;9477;51.414;10.362;2022-08-19T06:23:18;22.10;77.50
18694;DHT22;9477;51.414;10.362;2022-08-19T06:25:24;22.10;77.10
18694;DHT22;9477;51.414;10.362;2022-08-19T06:27:31;22.30;77.30
18694;DHT22;9477;51.414;10.362;2022-08-19T06:29:35;22.40;77.60
18694;DHT22;9477;51.414;10.362;2022-08-19T06:31:41;22.40;77.10
18694;DHT22;9477;51.414;10.362;2022-08-19T06:33:45;22.40;77.10
18694;DHT22;9477;51.414;10.362;2022-08-19T06:35:50;22.40;77.00
18694;DHT22;9477;51.414;10.362;2022-08-19T06:37:53;22.30;76.70
18694;DHT22;9477;51.414;10.362;2022-08-19T06:39:58;22.40;77.00
18694;DHT22;9477;51.414;10.362;2022-08-19T06:42:03;22.40;76.50
18694;DHT22;9477;51.414;10.362;2022-08-19T06:44:10;22.50;76.80
18694;DHT22;9477;51.414;10.362;2022-08-19T06:46:16;22.60;76.50
18694;DHT22;9477;51.414;10.362;2022-08-19T06:48:20;22.50;75.60
18694;DHT22;9477;51.414;10.362;2022-08-19T06:50:26;22.60;75.70
18694;DHT22;9477;51.414;10.362;2022-08-19T06:52:29;22.50;75.70
18694;DHT22;9477;51.414;10.362;2022-08-19T06:54:34;22.20;74.70
18694;DHT22;9477;51.414;10.362;2022-08-19T06:56:59;22.20;74.80
18694;DHT22;9477;51.414;10.362;2022-08-19T06:59:05;22.10;74.90
18694;DHT22;9477;51.414;10.362;2022-08-19T07:01:08;22.40;75.30
18694;DHT22;9477;51.414;10.362;2022-08-19T07:03:11;22.30;74.70
18694;DHT22;9477;51.414;10.362;2022-08-19T07:05:14;22.30;74.80
18694;DHT22;9477;51.414;10.362;2022-08-19T07:07:21;22.30;74.70
18694;DHT22;9477;51.414;10.362;2022-08-19T07:09:25;22.40;75.40
18694;DHT22;9477;51.414;10.362;2022-08-19T07:11:31;22.50;74.90
18694;DHT22;9477;51.414;10.362;2022-08-19T07:13:37;22.50;74.20
18694;DHT22;9477;51.414;10.362;2022-08-19T07:15:40;22.60;74.00
18694;DHT22;9477;51.414;10.362;2022-08-19T07:17:43;22.30;73.70
18694;DHT22;9477;51.414;10.362;2022-08-19T07:19:48;22.40;74.20
18694;DHT22;9477;51.414;10.362;2022-08-19T07:21:54;22.40;74.10
18694;DHT22;9477;51.414;10.362;2022-08-19T07:23:59;22.30;73.70
18694;DHT22;9477;51.414;10.362;2022-08-19T07:26:08;22.40;74.00
18694;DHT22;9477;51.414;10.362;2022-08-19T07:28:12;22.40;74.20
18694;DHT22;9477;51.414;10.362;2022-08-19T07:30:26;22.60;73.90
18694;DHT22;9477;51.414;10.362;2022-08-19T07:32:29;22.70;73.40
18694;DHT22;9477;51.414;10.362;2022-08-19T07:34:34;22.60;73.10
18694;DHT22;9477;51.414;10.362;2022-08-19T07:36:41;22.40;72.90
18694;DHT22;9477;51.414;10.362;2022-08-19T07:38:45;22.70;73.60
18694;DHT22;9477;51.414;10.362;2022-08-19T07:40:49;22.40;72.80
18694;DHT22;9477;51.414;10.362;2022-08-19T07:42:53;22.40;73.40
18694;DHT22;9477;51.414;10.362;2022-08-19T07:44:55;22.40;73.70
18694;DHT22;9477;51.414;10.362;2022-08-19T07:47:00;22.50;73.70
18694;DHT22;9477;51.414;10.362;2022-08-19T07:49:06;22.40;72.90
18694;DHT22;9477;51.414;10.362;2022-08-19T07:51:10;22.50;72.90
18694;DHT22;9477;51.414;10.362;2022-08-19T07:53:31;22.50;72.80
18694;DHT22;9477;51.414;10.362;2022-08-19T07:55:40;22.50;72.50
18694;DHT22;9477;51.414;10.362;2022-08-19T07:57:44;22.50;72.40
18694;DHT22;9477;51.414;10.362;2022-08-19T07:59:47;22.20;72.50
18694;DHT22;9477;51.414;10.362;2022-08-19T08:01:50;22.30;72.20
18694;DHT22;9477;51.414;10.362;2022-08-19T08:03:56;22.40;72.30
18694;DHT22;9477;51.414;10.362;2022-08-19T08:06:17;22.30;72.50
18694;DHT22;9477;51.414;10.362;2022-08-19T08:08:37;22.60;72.10
18694;DHT22;9477;51.414;10.362;2022-08-19T08:10:59;22.40;71.60
18694;DHT22;9477;51.414;10.362;2022-08-19T08:13:02;22.50;72.40
18694;DHT22;9477;51.414;10.362;2022-08-19T08:15:13;22.60;72.30
18694;DHT22;9477;51.414;10.362;2022-08-19T08:17:19;22.60;71.70
18694;DHT22;9477;51.414;10.362;2022-08-19T08:19:45;22.90;71.90
18694;DHT22;9477;51.414;10.362;2022-08-19T08:21:53;23.10;71.30
18694;DHT22;9477;51.414;10.362;2022-08-19T08:23:57;23.00;70.60
18694;DHT22;9477;51.414;10.362;2022-08-19T08:26:03;22.90;70.60
18694;DHT22;9477;51.414;10.362;2022-08-19T08:28:06;22.80;70.40
18694;DHT22;9477;51.414;10.362;2022-08-19T08:30:15;23.00;70.60
18694;DHT22;9477;51.414;10.362;2022-08-19T08:32:19;22.90;69.80
18694;DHT22;9477;51.414;10.362;2022-08-19T08:34:22;23.10;69.70
18694;DHT22;9477;51.414;10.362;2022-08-19T08:36:26;23.10;70.00
18694;DHT22;9477;51.414;10.362;2022-08-19T08:38:28;23.10;69.60
18694;DHT22;9477;51.414;10.362;2022-08-19T08:40:43;23.10;69.60
18694;DHT22;9477;51.414;10.362;2022-08-19T08:42:49;23.10;70.00
18694;DHT22;9477;51.414;10.362;2022-08-19T08:44:59;23.00;70.20
18694;DHT22;9477;51.414;10.362;2022-08-19T08:47:04;23.00;70.60
18694;DHT22;9477;51.414;10.362;2022-08-19T08:49:20;22.90;69.90
18694;DHT22;9477;51.414;10.362;2022-08-19T08:51:31;22.70;70.00
18694;DHT22;9477;51.414;10.362;2022-08-19T08:53:36;22.90;70.90
18694;DHT22;9477;51.414;10.362;2022-08-19T08:55:42;23.10;70.90
18694;DHT22;9477;51.414;10.362;2022-08-19T08:57:53;23.20;70.50
18694;DHT22;9477;51.414;10.362;2022-08-19T09:00:00;23.40;70.00
18694;DHT22;9477;51.414;10.362;2022-08-19T09:02:07;23.30;68.80
18694;DHT22;9477;51.414;10.362;2022-08-19T09:04:12;23.20;67.90
18694;DHT22;9477;51.414;10.362;2022-08-19T09:06:24;23.30;68.20
18694;DHT22;9477;51.414;10.362;2022-08-19T09:08:39;23.40;67.40
18694;DHT22;9477;51.414;10.362;2022-08-19T09:10:48;23.30;67.20
18694;DHT22;9477;51.414;10.362;2022-08-19T09:13:03;23.10;67.30
18694;DHT22;9477;51.414;10.362;2022-08-19T09:15:13;23.20;66.70
18694;DHT22;9477;51.414;10.362;2022-08-19T09:17:19;23.20;66.40
18694;DHT22;9477;51.414;10.362;2022-08-19T09:19:30;23.40;67.00
18694;DHT22;9477;51.414;10.362;2022-08-19T09:21:34;23.50;67.40
18694;DHT22;9477;51.414;10.362;2022-08-19T09:23:40;23.40;65.50
18694;DHT22;9477;51.414;10.362;2022-08-19T09:25:44;23.40;65.50
18694;DHT22;9477;51.414;10.362;2022-08-19T09:27:48;23.50;65.90
18694;DHT22;9477;51.414;10.362;2022-08-19T09:29:52;23.70;66.20
18694;DHT22;9477;51.414;10.362;2022-08-19T09:31:55;23.70;65.40
18694;DHT22;9477;51.414;10.362;2022-08-19T09:33:59;23.70;65.50
18694;DHT22;9477;51.414;10.362;2022-08-19T09:36:05;23.80;65.60
18694;DHT22;9477;51.414;10.362;2022-08-19T09:38:09;23.90;65.80
18694;DHT22;9477;51.414;10.362;2022-08-19T09:40:13;23.80;65.70
18694;DHT22;9477;51.414;10.362;2022-08-19T09:42:16;23.80;65.90
18694;DHT22;9477;51.414;10.362;2022-08-19T09:44:31;23.90;66.50
18694;DHT22;9477;51.414;10.362;2022-08-19T09:46:35;23.90;66.70
18694;DHT22;9477;51.414;10.362;2022-08-19T09:48:39;23.90;67.00
18694;DHT22;9477;51.414;10.362;2022-08-19T09:50:42;23.90;67.10
18694;DHT22;9477;51.414;10.362;2022-08-19T09:52:52;24.00;67.20
18694;DHT22;9477;51.414;10.362;2022-08-19T09:54:58;24.00;66.70
18694;DHT22;9477;51.414;10.362;2022-08-19T09:57:09;23.90;66.70
18694;DHT22;9477;51.414;10.362;2022-08-19T09:59:12;24.20;67.00
18694;DHT22;9477;51.414;10.362;2022-08-19T10:01:19;24.40;67.20
18694;DHT22;9477;51.414;10.362;2022-08-19T10:03:22;24.50;66.20
18694;DHT22;9477;51.414;10.362;2022-08-19T10:05:30;24.50;66.80
18694;DHT22;9477;51.414;10.362;2022-08-19T10:07:56;24.60;67.30
18694;DHT22;9477;51.414;10.362;2022-08-19T10:09:58;24.80;66.60
18694;DHT22;9477;51.414;10.362;2022-08-19T10:12:02;24.90;66.20
18694;DHT22;9477;51.414;10.362;2022-08-19T10:14:08;25.10;65.60
18694;DHT22;9477;51.414;10.362;2022-08-19T10:16:14;25.10;64.90
18694;DHT22;9477;51.414;10.362;2022-08-19T10:18:18;25.10;64.10
18694;DHT22;9477;51.414;10.362;2022-08-19T10:20:21;25.20;64.70
18694;DHT22;9477;51.414;10.362;2022-08-19T10:22:24;25.10;64.40
18694;DHT22;9477;51.414;10.362;2022-08-19T10:24:27;25.20;64.80
18694;DHT22;9477;51.414;10.362;2022-08-19T10:26:35;25.10;63.80
18694;DHT22;9477;51.414;10.362;2022-08-19T10:28:38;25.20;63.70
18694;DHT22;9477;51.414;10.362;2022-08-19T10:30:44;25.20;64.30
18694;DHT22;9477;51.414;10.362;2022-08-19T10:32:47;25.40;63.70
18694;DHT22;9477;51.414;10.362;2022-08-19T10:34:50;25.40;63.30
18694;DHT22;9477;51.414;10.362;2022-08-19T10:36:58;25.30;62.90
18694;DHT22;9477;51.414;10.362;2022-08-19T10:39:05;25.40;63.50
18694;DHT22;9477;51.414;10.362;2022-08-19T10:41:11;25.40;63.40
18694;DHT22;9477;51.414;10.362;2022-08-19T10:43:14;25.30;63.20
18694;DHT22;9477;51.414;10.362;2022-08-19T10:45:17;25.20;63.20
18694;DHT22;9477;51.414;10.362;2022-08-19T10:47:26;25.10;63.40
18694;DHT22;9477;51.414;10.362;2022-08-19T10:49:32;24.80;62.50
18694;DHT22;9477;51.414;10.362;2022-08-19T10:51:56;24.80;62.90
18694;DHT22;9477;51.414;10.362;2022-08-19T10:54:20;24.70;63.40
18694;DHT22;9477;51.414;10.362;2022-08-19T10:56:34;24.20;63.70
18694;DHT22;9477;51.414;10.362;2022-08-19T10:58:54;24.50;64.50
18694;DHT22;9477;51.414;10.362;2022-08-19T11:00:58;24.60;64.90
18694;DHT22;9477;51.414;10.362;2022-08-19T11:03:03;24.80;64.70
18694;DHT22;9477;51.414;10.362;2022-08-19T11:05:07;24.90;65.00
18694;DHT22;9477;51.414;10.362;2022-08-19T11:07:14;25.20;64.00
18694;DHT22;9477;51.414;10.362;2022-08-19T11:09:21;25.40;63.20
18694;DHT22;9477;51.414;10.362;2022-08-19T11:11:34;25.50;63.50
18694;DHT22;9477;51.414;10.362;2022-08-19T11:13:42;25.70;63.30
18694;DHT22;9477;51.414;10.362;2022-08-19T11:15:45;25.60;62.30
18694;DHT22;9477;51.414;10.362;2022-08-19T11:17:48;25.60;62.70
18694;DHT22;9477;51.414;10.362;2022-08-19T11:19:55;25.60;62.20
18694;DHT22;9477;51.414;10.362;2022-08-19T11:21:58;25.60;62.60
18694;DHT22;9477;51.414;10.362;2022-08-19T11:24:07;25.80;62.60
18694;DHT22;9477;51.414;10.362;2022-08-19T11:26:10;25.80;61.20
18694;DHT22;9477;51.414;10.362;2022-08-19T11:28:13;26.00;60.90
18694;DHT22;9477;51.414;10.362;2022-08-19T11:30:16;26.20;61.20
18694;DHT22;9477;51.414;10.362;2022-08-19T11:32:19;26.20;59.80
18694;DHT22;9477;51.414;10.362;2022-08-19T11:34:24;26.30;59.80
18694;DHT22;9477;51.414;10.362;2022-08-19T11:36:30;26.20;59.80
18694;DHT22;9477;51.414;10.362;2022-08-19T11:38:34;26.30;59.70
18694;DHT22;9477;51.414;10.362;2022-08-19T11:40:37;26.40;60.20
18694;DHT22;9477;51.414;10.362;2022-08-19T11:42:39;26.40;59.30
18694;DHT22;9477;51.414;10.362;2022-08-19T11:44:58;26.40;59.00
18694;DHT22;9477;51.414;10.362;2022-08-19T11:47:00;26.40;59.00
18694;DHT22;9477;51.414;10.362;2022-08-19T11:49:09;26.40;59.00
18694;DHT22;9477;51.414;10.362;2022-08-19T11:51:18;26.30;58.90
18694;DHT22;9477;51.414;10.362;2022-08-19T11:53:23;26.50;59.40
18694;DHT22;9477;51.414;10.362;2022-08-19T11:55:26;26.70;59.50
18694;DHT22;9477;51.414;10.362;2022-08-19T11:57:29;26.90;59.70
18694;DHT22;9477;51.414;10.362;2022-08-19T11:59:31;27.00;59.10
18694;DHT22;9477;51.414;10.362;2022-08-19T12:01:34;27.10;58.40
18694;DHT22;9477;51.414;10.362;2022-08-19T12:03:37;27.10;58.30
18694;DHT22;9477;51.414;10.362;2022-08-19T12:05:40;27.00;58.00
18694;DHT22;9477;51.414;10.362;2022-08-19T12:07:43;27.00;58.10
18694;DHT22;9477;51.414;10.362;2022-08-19T12:09:47;27.10;58.20
18694;DHT22;9477;51.414;10.362;2022-08-19T12:11:50;27.20;58.20
18694;DHT22;9477;51.414;10.362;2022-08-19T12:13:53;27.20;57.50
18694;DHT22;9477;51.414;10.362;2022-08-19T12:15:57;27.20;57.40
18694;DHT22;9477;51.414;10.362;2022-08-19T12:17:59;27.20;57.70
18694;DHT22;9477;51.414;10.362;2022-08-19T12:20:05;27.10;57.30
18694;DHT22;9477;51.414;10.362;2022-08-19T12:22:08;27.20;57.70
18694;DHT22;9477;51.414;10.362;2022-08-19T12:24:10;27.10;57.00
18694;DHT22;9477;51.414;10.362;2022-08-19T12:26:15;27.10;57.60
18694;DHT22;9477;51.414;10.362;2022-08-19T12:28:19;27.30;57.80
18694;DHT22;9477;51.414;10.362;2022-08-19T12:30:22;27.30;57.20
18694;DHT22;9477;51.414;10.362;2022-08-19T12:32:25;27.30;57.20
18694;DHT22;9477;51.414;10.362;2022-08-19T12:34:29;27.30;56.60
18694;DHT22;9477;51.414;10.362;2022-08-19T12:36:32;27.50;57.00
18694;DHT22;9477;51.414;10.362;2022-08-19T12:38:37;27.60;56.80
18694;DHT22;9477;51.414;10.362;2022-08-19T12:40:40;27.70;54.10
18694;DHT22;9477;51.414;10.362;2022-08-19T12:42:44;27.80;54.00
18694;DHT22;9477;51.414;10.362;2022-08-19T12:44:47;27.70;54.30
18694;DHT22;9477;51.414;10.362;2022-08-19T12:46:49;27.70;55.00
18694;DHT22;9477;51.414;10.362;2022-08-19T12:48:54;27.90;54.50
18694;DHT22;9477;51.414;10.362;2022-08-19T12:50:58;27.80;53.70
18694;DHT22;9477;51.414;10.362;2022-08-19T12:53:00;27.80;54.00
18694;DHT22;9477;51.414;10.362;2022-08-19T12:55:05;27.70;54.20
18694;DHT22;9477;51.414;10.362;2022-08-19T12:57:10;27.60;53.00
18694;DHT22;9477;51.414;10.362;2022-08-19T12:59:15;27.80;53.60
18694;DHT22;9477;51.414;10.362;2022-08-19T13:01:20;27.90;53.90
18694;DHT22;9477;51.414;10.362;2022-08-19T13:03:24;28.10;53.80
18694;DHT22;9477;51.414;10.362;2022-08-19T13:05:32;28.30;53.50
18694;DHT22;9477;51.414;10.362;2022-08-19T13:07:35;28.20;51.50
18694;DHT22;9477;51.414;10.362;2022-08-19T13:09:39;28.20;51.70
18694;DHT22;9477;51.414;10.362;2022-08-19T13:11:44;28.30;52.10
18694;DHT22;9477;51.414;10.362;2022-08-19T13:13:48;28.10;51.00
18694;DHT22;9477;51.414;10.362;2022-08-19T13:16:00;28.10;50.50